Time;durP1;ratioP1;P1;durP2;ratioP2;P2;SDS_P1;SDS_P2;PMS_P1;PMS_P2;Temp;Humidity;BMP_temperature;BMP_pressure;BME280_temperature;BME280_humidity;BME280_pressure;Samples;Min_cycle;Max_cycle;Signal;HPM_P1;HPM_P2
2023/05/13 00:02:21;;;;;;;1.67;1.58;;;;;;;;;;8153651;28;20318;-71
2023/05/13 00:06:21;;;;;;;5.03;1.80;;;;;;;;;;8154090;28;20074;-71
2023/05/13 00:10:21;;;;;;;3.92;1.75;;;;;;;;;;8159157;28;20035;-71
2023/05/13 00:14:21;;;;;;;1.70;1.60;;;;;;;;;;8158871;28;21007;-72
2023/05/13 00:18:21;;;;;;;3.20;1.90;;;;;;;;;;8160365;28;20038;-72
2023/05/13 00:22:21;;;;;;;5.30;1.90;;;;;;;;;;8160465;28;20075;-71
2023/05/13 00:26:22;;;;;;;4.90;2.60;;;;;;;;;;8166593;28;20031;-71
2023/05/13 00:30:22;;;;;;;5.07;2.63;;;;;;;;;;8149939;28;20138;-72
2023/05/13 00:34:23;;;;;;;3.10;2.80;;;;;;;;;;8155780;28;20074;-72
2023/05/13 00:38:23;;;;;;;5.35;2.28;;;;;;;;;;8155276;28;20035;-71
2023/05/13 00:42:23;;;;;;;2.70;2.50;;;;;;;;;;8154351;28;20031;-71
2023/05/13 00:46:24;;;;;;;5.75;2.65;;;;;;;;;;8155929;28;20870;-72
2023/05/13 00:50:24;;;;;;;3.00;2.70;;;;;;;;;;8165343;29;20538;-72
2023/05/13 00:54:25;;;;;;;2.97;2.53;;;;;;;;;;8162588;28;20035;-72
2023/05/13 00:58:25;;;;;;;3.10;2.80;;;;;;;;;;8151799;28;20699;-71
2023/05/13 01:02:34;;;;;;;4.82;3.20;;;;;;;;;;8157701;28;20070;-72
2023/05/13 01:06:46;;;;;;;4.28;3.00;;;;;;;;;;8152707;28;20127;-71
2023/05/13 01:10:49;;;;;;;6.13;3.17;;;;;;;;;;8157789;28;20031;-71
2023/05/13 01:15:02;;;;;;;3.45;3.05;;;;;;;;;;8156209;28;20027;-72
2023/05/13 01:19:14;;;;;;;9.90;3.88;;;;;;;;;;8182494;28;20070;-72
2023/05/13 01:23:14;;;;;;;4.82;3.50;;;;;;;;;;8189314;28;20643;-72
2023/05/13 01:27:15;;;;;;;3.45;3.15;;;;;;;;;;8191827;28;20018;-71
2023/05/13 01:31:15;;;;;;;4.03;3.63;;;;;;;;;;8178373;28;20559;-72
2023/05/13 01:35:16;;;;;;;7.90;3.53;;;;;;;;;;8153454;29;20050;-72
2023/05/13 01:39:17;;;;;;;4.05;3.58;;;;;;;;;;8158670;28;20283;-72
2023/05/13 01:43:18;;;;;;;4.53;3.58;;;;;;;;;;8159053;28;20950;-71
2023/05/13 01:47:18;;;;;;;4.47;3.97;;;;;;;;;;8158311;28;20485;-72
2023/05/13 01:51:18;;;;;;;5.85;3.63;;;;;;;;;;8161738;28;20031;-71
2023/05/13 01:55:18;;;;;;;5.05;4.28;;;;;;;;;;8159297;28;20031;-71
2023/05/13 01:59:18;;;;;;;4.75;4.28;;;;;;;;;;8157485;28;20803;-72
2023/05/13 02:03:19;;;;;;;4.22;3.72;;;;;;;;;;8158485;28;20304;-72
2023/05/13 02:07:20;;;;;;;5.72;3.78;;;;;;;;;;8159574;28;20023;-71
2023/05/13 02:11:21;;;;;;;7.30;3.90;;;;;;;;;;8163196;28;20027;-71
2023/05/13 02:15:21;;;;;;;4.85;3.60;;;;;;;;;;8161666;28;20023;-72
2023/05/13 02:19:21;;;;;;;4.75;3.35;;;;;;;;;;8158247;28;20098;-72
2023/05/13 02:23:22;;;;;;;4.40;3.80;;;;;;;;;;8159910;28;20019;-72
2023/05/13 02:27:22;;;;;;;5.85;3.72;;;;;;;;;;8158375;28;20222;-72
2023/05/13 02:31:22;;;;;;;4.15;3.75;;;;;;;;;;8157683;28;20055;-72
2023/05/13 02:35:24;;;;;;;5.63;4.30;;;;;;;;;;8164188;28;20552;-71
2023/05/13 02:39:24;;;;;;;4.78;3.70;;;;;;;;;;8166748;29;20078;-72
2023/05/13 02:43:26;;;;;;;4.75;3.70;;;;;;;;;;8168415;28;20927;-72
2023/05/13 02:47:26;;;;;;;6.63;3.53;;;;;;;;;;8162543;28;20059;-71
2023/05/13 02:51:26;;;;;;;4.60;4.20;;;;;;;;;;8157989;28;20042;-71
2023/05/13 02:55:26;;;;;;;4.90;3.60;;;;;;;;;;8159772;28;20038;-71
2023/05/13 02:59:27;;;;;;;5.13;4.35;;;;;;;;;;8157081;28;20038;-71
2023/05/13 03:03:28;;;;;;;6.82;4.60;;;;;;;;;;8156439;28;20043;-71
2023/05/13 03:07:28;;;;;;;5.53;3.83;;;;;;;;;;8156923;28;20042;-72
2023/05/13 03:11:28;;;;;;;4.75;4.13;;;;;;;;;;8156391;28;20866;-72
2023/05/13 03:15:28;;;;;;;5.13;4.13;;;;;;;;;;8154364;28;20134;-72
2023/05/13 03:19:28;;;;;;;5.00;4.50;;;;;;;;;;8157326;28;20812;-72
2023/05/13 03:23:29;;;;;;;5.25;4.30;;;;;;;;;;8156362;28;20283;-71
2023/05/13 03:27:29;;;;;;;7.97;4.63;;;;;;;;;;8161111;28;20037;-72
2023/05/13 03:31:29;;;;;;;4.80;4.10;;;;;;;;;;8157500;28;20043;-72
2023/05/13 03:35:29;;;;;;;5.93;4.85;;;;;;;;;;8161836;28;20102;-72
2023/05/13 03:39:30;;;;;;;8.23;4.07;;;;;;;;;;8164303;28;20023;-71
2023/05/13 03:43:30;;;;;;;6.40;4.10;;;;;;;;;;8158285;28;20287;-72
2023/05/13 03:47:30;;;;;;;4.53;4.10;;;;;;;;;;8156682;28;20457;-72
2023/05/13 03:51:31;;;;;;;5.63;3.92;;;;;;;;;;8156072;29;20711;-71
2023/05/13 03:55:32;;;;;;;4.57;4.15;;;;;;;;;;8157032;28;20787;-71
2023/05/13 03:59:32;;;;;;;4.47;4.07;;;;;;;;;;8155595;28;20857;-72
2023/05/13 04:03:33;;;;;;;6.40;4.32;;;;;;;;;;8160732;28;20035;-71
2023/05/13 04:07:33;;;;;;;3.95;3.60;;;;;;;;;;8163763;28;20031;-72
2023/05/13 04:11:33;;;;;;;5.28;4.15;;;;;;;;;;8155262;28;20027;-71
2023/05/13 04:15:33;;;;;;;5.57;4.13;;;;;;;;;;8152259;28;20035;-72
2023/05/13 04:19:34;;;;;;;5.18;4.40;;;;;;;;;;8156927;28;20027;-72
2023/05/13 04:23:34;;;;;;;5.93;4.18;;;;;;;;;;8156905;28;20073;-71
2023/05/13 04:27:34;;;;;;;4.63;4.15;;;;;;;;;;8168594;28;20171;-72
2023/05/13 04:31:34;;;;;;;6.63;3.85;;;;;;;;;;8166377;28;20038;-72
2023/05/13 04:35:35;;;;;;;4.47;3.70;;;;;;;;;;8186230;28;20142;-72
2023/05/13 04:39:35;;;;;;;4.17;3.77;;;;;;;;;;8186323;28;20726;-72
2023/05/13 04:43:35;;;;;;;5.55;3.75;;;;;;;;;;8186921;28;20889;-71
2023/05/13 04:47:36;;;;;;;7.47;4.07;;;;;;;;;;8169055;28;20039;-72
2023/05/13 04:51:38;;;;;;;4.28;3.80;;;;;;;;;;8157406;28;20051;-72
2023/05/13 04:55:38;;;;;;;5.10;3.57;;;;;;;;;;8159120;29;20054;-72
2023/05/13 04:59:38;;;;;;;6.85;3.70;;;;;;;;;;8152204;28;20082;-71
2023/05/13 05:03:38;;;;;;;4.85;3.38;;;;;;;;;;8152249;28;20065;-72
2023/05/13 05:07:39;;;;;;;4.70;3.70;;;;;;;;;;8156653;28;20910;-72
2023/05/13 05:11:39;;;;;;;4.43;3.40;;;;;;;;;;8153950;28;20023;-72
2023/05/13 05:15:40;;;;;;;4.80;3.28;;;;;;;;;;8153221;28;20035;-72
2023/05/13 05:19:40;;;;;;;3.55;3.00;;;;;;;;;;8158502;28;20140;-73
2023/05/13 05:23:40;;;;;;;3.70;3.30;;;;;;;;;;8154222;28;20035;-72
2023/05/13 05:27:41;;;;;;;3.60;3.30;;;;;;;;;;8152433;28;20027;-72
2023/05/13 05:31:41;;;;;;;3.65;3.35;;;;;;;;;;8158638;28;20036;-73
2023/05/13 05:35:41;;;;;;;6.90;4.03;;;;;;;;;;8166217;28;20024;-72
2023/05/13 05:39:41;;;;;;;3.88;3.45;;;;;;;;;;8154574;28;20565;-72
2023/05/13 05:43:41;;;;;;;3.83;3.42;;;;;;;;;;8149573;28;20106;-73
2023/05/13 05:47:42;;;;;;;6.00;2.78;;;;;;;;;;8156251;28;20031;-73
2023/05/13 05:51:42;;;;;;;8.50;3.30;;;;;;;;;;8150919;28;20078;-72
2023/05/13 05:55:42;;;;;;;3.75;3.33;;;;;;;;;;8162014;28;20962;-73
2023/05/13 05:59:42;;;;;;;3.25;2.40;;;;;;;;;;8148770;28;20045;-73
2023/05/13 06:03:44;;;;;;;2.40;2.20;;;;;;;;;;8151783;28;20492;-73
2023/05/13 06:07:44;;;;;;;4.53;2.80;;;;;;;;;;8160456;28;20440;-73
2023/05/13 06:11:44;;;;;;;3.30;2.88;;;;;;;;;;8155830;28;20114;-73
2023/05/13 06:15:45;;;;;;;4.47;2.63;;;;;;;;;;8151733;28;20066;-73
2023/05/13 06:19:45;;;;;;;3.33;3.03;;;;;;;;;;8153747;28;20019;-73
2023/05/13 06:23:45;;;;;;;2.83;2.60;;;;;;;;;;8160219;28;20360;-73
2023/05/13 06:27:45;;;;;;;3.58;2.10;;;;;;;;;;8160074;28;20030;-74
2023/05/13 06:31:46;;;;;;;2.45;2.25;;;;;;;;;;8155339;28;20039;-74
2023/05/13 06:35:48;;;;;;;3.10;2.33;;;;;;;;;;8156296;28;20086;-73
2023/05/13 06:39:48;;;;;;;2.85;2.20;;;;;;;;;;8160709;28;20027;-73
2023/05/13 06:43:48;;;;;;;2.63;1.97;;;;;;;;;;8165361;28;20133;-74
2023/05/13 06:47:49;;;;;;;2.95;2.20;;;;;;;;;;8159531;28;20331;-74
2023/05/13 06:51:50;;;;;;;3.28;2.22;;;;;;;;;;8157582;28;20142;-74
2023/05/13 06:55:50;;;;;;;2.10;1.95;;;;;;;;;;8157723;28;20019;-74
2023/05/13 06:59:50;;;;;;;3.37;2.30;;;;;;;;;;8160157;28;20871;-74
2023/05/13 07:03:50;;;;;;;3.40;1.90;;;;;;;;;;8193392;28;20282;-74
2023/05/13 07:07:52;;;;;;;2.22;2.00;;;;;;;;;;8187468;28;20018;-75
2023/05/13 07:11:52;;;;;;;4.95;2.10;;;;;;;;;;8188720;28;20037;-74
2023/05/13 07:15:52;;;;;;;4.78;1.98;;;;;;;;;;8179870;28;20039;-74
2023/05/13 07:19:53;;;;;;;4.75;1.60;;;;;;;;;;8164032;28;20027;-74
2023/05/13 07:23:53;;;;;;;2.53;2.20;;;;;;;;;;8159196;28;20039;-74
2023/05/13 07:27:53;;;;;;;2.05;1.80;;;;;;;;;;8156430;28;20023;-74
2023/05/13 07:31:53;;;;;;;2.10;1.85;;;;;;;;;;8153701;28;20820;-74
2023/05/13 07:35:53;;;;;;;4.28;2.03;;;;;;;;;;8162155;28;20174;-75
2023/05/13 07:39:54;;;;;;;1.90;1.80;;;;;;;;;;8161544;28;20419;-74
2023/05/13 07:43:55;;;;;;;4.00;1.70;;;;;;;;;;8152055;28;20038;-75
2023/05/13 07:47:55;;;;;;;2.60;1.70;;;;;;;;;;8174026;28;20524;-74
2023/05/13 07:51:55;;;;;;;2.35;1.80;;;;;;;;;;8186590;28;20034;-73
2023/05/13 07:55:56;;;;;;;2.30;1.77;;;;;;;;;;8190036;28;20550;-74
2023/05/13 07:59:56;;;;;;;1.83;1.65;;;;;;;;;;8187047;28;20019;-74
2023/05/13 08:03:56;;;;;;;3.60;1.88;;;;;;;;;;8154619;28;20479;-74
2023/05/13 08:07:58;;;;;;;2.28;1.80;;;;;;;;;;8153759;28;20827;-74
2023/05/13 08:11:58;;;;;;;2.25;1.70;;;;;;;;;;8155451;28;20133;-75
2023/05/13 08:16:02;;;;;;;1.80;1.70;;;;;;;;;;8155862;28;20907;-74
2023/05/13 08:20:02;;;;;;;2.08;1.88;;;;;;;;;;8157230;29;20026;-74
2023/05/13 08:24:02;;;;;;;2.47;1.80;;;;;;;;;;8154139;28;21086;-74
2023/05/13 08:28:03;;;;;;;2.25;1.90;;;;;;;;;;8154967;28;20365;-75
2023/05/13 08:32:03;;;;;;;1.50;1.40;;;;;;;;;;8150766;28;20047;-74
2023/05/13 08:36:04;;;;;;;3.08;2.03;;;;;;;;;;8154885;29;20275;-74
2023/05/13 08:40:05;;;;;;;2.25;1.70;;;;;;;;;;8152663;28;20023;-74
2023/05/13 08:44:06;;;;;;;2.70;1.67;;;;;;;;;;8149247;28;20637;-74
2023/05/13 08:48:07;;;;;;;2.38;1.90;;;;;;;;;;8159524;28;20031;-74
2023/05/13 08:52:08;;;;;;;2.72;1.70;;;;;;;;;;8151311;29;20098;-74
2023/05/13 08:56:08;;;;;;;2.03;1.92;;;;;;;;;;8155926;28;20023;-74
2023/05/13 09:00:09;;;;;;;2.70;1.80;;;;;;;;;;8149669;28;20559;-74
2023/05/13 09:04:09;;;;;;;2.75;1.75;;;;;;;;;;8154706;28;20023;-74
2023/05/13 09:08:09;;;;;;;2.63;2.17;;;;;;;;;;8150655;29;20019;-74
2023/05/13 09:12:09;;;;;;;2.05;1.60;;;;;;;;;;8149806;28;20109;-74
2023/05/13 09:16:12;;;;;;;1.90;1.70;;;;;;;;;;8151047;28;20039;-74
2023/05/13 09:20:14;;;;;;;2.35;2.00;;;;;;;;;;8150213;28;20051;-75
2023/05/13 09:24:20;;;;;;;2.63;1.95;;;;;;;;;;8160818;28;20630;-74
2023/05/13 09:28:22;;;;;;;4.88;1.92;;;;;;;;;;8164971;28;20066;-75
2023/05/13 09:32:22;;;;;;;2.47;1.60;;;;;;;;;;8156699;28;20044;-74
2023/05/13 09:36:22;;;;;;;2.83;1.60;;;;;;;;;;8153445;28;20090;-74
2023/05/13 09:40:22;;;;;;;1.77;1.50;;;;;;;;;;8151687;28;20042;-74
2023/05/13 09:44:23;;;;;;;1.85;1.40;;;;;;;;;;8157132;29;20035;-74
2023/05/13 09:48:24;;;;;;;3.90;1.70;;;;;;;;;;8148601;28;20515;-74
2023/05/13 09:52:24;;;;;;;4.50;1.60;;;;;;;;;;8153446;29;20518;-74
2023/05/13 09:56:27;;;;;;;4.63;1.75;;;;;;;;;;8154824;28;20027;-75
2023/05/13 10:00:27;;;;;;;;;;;;;;;;;;8159185;28;20500;-74
2023/05/13 10:04:27;;;;;;;2.85;2.00;;;;;;;;;;8160302;29;19921;-74
2023/05/13 10:08:28;;;;;;;1.80;1.70;;;;;;;;;;8157871;28;20031;-74
2023/05/13 10:12:30;;;;;;;6.32;2.13;;;;;;;;;;8158273;29;20110;-74
2023/05/13 10:16:33;;;;;;;4.37;1.80;;;;;;;;;;8159558;28;20817;-74
2023/05/13 10:20:33;;;;;;;2.55;1.80;;;;;;;;;;8173188;28;20023;-73
2023/05/13 10:24:34;;;;;;;1.95;1.67;;;;;;;;;;8154545;29;21129;-73
2023/05/13 10:28:34;;;;;;;1.90;1.70;;;;;;;;;;8155192;28;20030;-73
2023/05/13 10:32:36;;;;;;;1.70;1.58;;;;;;;;;;8167792;28;20138;-73
2023/05/13 10:36:39;;;;;;;4.82;1.63;;;;;;;;;;8157470;28;20031;-73
2023/05/13 10:40:50;;;;;;;2.97;2.15;;;;;;;;;;8158726;28;20031;-73
2023/05/13 10:44:52;;;;;;;10.38;4.35;;;;;;;;;;8155312;28;20090;-72
2023/05/13 10:48:57;;;;;;;2.83;2.00;;;;;;;;;;8186420;28;20050;-73
2023/05/13 10:52:58;;;;;;;3.40;2.45;;;;;;;;;;8185542;28;20031;-73
2023/05/13 10:56:58;;;;;;;3.42;2.00;;;;;;;;;;8189167;28;20018;-74
2023/05/13 11:01:15;;;;;;;2.58;2.30;;;;;;;;;;8186058;28;20134;-74
2023/05/13 11:05:18;;;;;;;3.42;2.00;;;;;;;;;;8159771;29;20093;-73
2023/05/13 11:09:18;;;;;;;;;;;;;;;;;;8151502;28;20027;-73
2023/05/13 11:13:20;;;;;;;14.13;6.10;;;;;;;;;;8162549;28;19918;-74
2023/05/13 11:17:21;;;;;;;50.45;17.80;;;;;;;;;;8155026;28;20042;-74
2023/05/13 11:21:31;;;;;;;7.88;3.72;;;;;;;;;;8161198;28;20106;-73
2023/05/13 11:25:31;;;;;;;8.80;2.50;;;;;;;;;;8157611;28;20033;-73
2023/05/13 11:29:32;;;;;;;3.22;2.50;;;;;;;;;;8151777;28;20787;-73
2023/05/13 11:33:53;;;;;;;26.45;6.22;;;;;;;;;;8154281;28;20149;-73
2023/05/13 11:37:57;;;;;;;2.70;2.50;;;;;;;;;;8153503;28;20027;-73
2023/05/13 11:42:00;;;;;;;4.82;2.40;;;;;;;;;;8154120;28;20122;-73
2023/05/13 11:46:00;;;;;;;;;;;;;;;;;;8156033;28;20916;-73
2023/05/13 11:50:02;;;;;;;3.00;2.50;;;;;;;;;;8152555;28;20514;-73
2023/05/13 11:54:02;;;;;;;4.00;2.17;;;;;;;;;;8153732;28;20031;-73
2023/05/13 11:58:02;;;;;;;2.63;2.08;;;;;;;;;;8160324;28;20030;-74
2023/05/13 12:02:03;;;;;;;2.75;2.08;;;;;;;;;;8148484;28;21033;-74
2023/05/13 12:06:04;;;;;;;6.33;2.43;;;;;;;;;;8150607;28;21056;-73
2023/05/13 12:10:05;;;;;;;4.18;2.03;;;;;;;;;;8157240;28;20199;-73
2023/05/13 12:14:06;;;;;;;4.55;1.90;;;;;;;;;;8150831;28;20046;-73
2023/05/13 12:18:07;;;;;;;3.10;1.77;;;;;;;;;;8181482;28;20035;-73
2023/05/13 12:22:07;;;;;;;2.47;1.80;;;;;;;;;;8190562;28;20094;-73
2023/05/13 12:26:08;;;;;;;3.03;1.83;;;;;;;;;;8189464;28;20116;-73
2023/05/13 12:30:13;;;;;;;3.33;2.00;;;;;;;;;;8193938;28;20090;-73
2023/05/13 12:34:28;;;;;;;2.95;1.80;;;;;;;;;;8183811;28;20026;-73
2023/05/13 12:38:28;;;;;;;3.35;1.80;;;;;;;;;;8182811;28;20057;-73
2023/05/13 12:42:28;;;;;;;2.17;1.98;;;;;;;;;;8189707;28;20038;-73
2023/05/13 12:46:29;;;;;;;4.03;2.00;;;;;;;;;;8179102;28;20126;-73
2023/05/13 12:50:29;;;;;;;2.83;1.93;;;;;;;;;;8151907;29;20816;-72
2023/05/13 12:54:29;;;;;;;2.30;1.58;;;;;;;;;;8146453;28;20023;-73
2023/05/13 12:58:29;;;;;;;4.05;1.83;;;;;;;;;;8163275;28;20464;-73
2023/05/13 13:02:30;;;;;;;1.48;1.38;;;;;;;;;;8161456;28;20047;-73
2023/05/13 13:06:31;;;;;;;4.77;1.70;;;;;;;;;;8157718;28;20038;-72
2023/05/13 13:10:31;;;;;;;2.00;1.42;;;;;;;;;;8154065;28;20030;-73
2023/05/13 13:14:31;;;;;;;1.30;1.20;;;;;;;;;;8151484;28;20042;-73
2023/05/13 13:18:32;;;;;;;1.95;1.10;;;;;;;;;;8153246;28;20062;-72
2023/05/13 13:22:33;;;;;;;4.47;1.63;;;;;;;;;;8151378;28;20027;-72
2023/05/13 13:26:33;;;;;;;1.50;1.30;;;;;;;;;;8155750;28;21131;-72
2023/05/13 13:30:33;;;;;;;1.70;1.40;;;;;;;;;;8158712;28;20047;-72
2023/05/13 13:34:33;;;;;;;8.25;2.05;;;;;;;;;;8192244;28;20022;-73
2023/05/13 13:38:33;;;;;;;2.13;1.67;;;;;;;;;;8188425;28;20022;-72
2023/05/13 13:42:34;;;;;;;3.28;1.67;;;;;;;;;;8192661;28;20038;-72
2023/05/13 13:46:34;;;;;;;5.03;2.03;;;;;;;;;;8180133;28;20166;-72
2023/05/13 13:50:34;;;;;;;3.83;2.00;;;;;;;;;;8158230;28;20066;-72
2023/05/13 13:54:34;;;;;;;2.42;1.80;;;;;;;;;;8167192;28;20042;-73
2023/05/13 13:58:34;;;;;;;3.97;2.00;;;;;;;;;;8166376;29;20030;-73
2023/05/13 14:02:35;;;;;;;6.97;2.00;;;;;;;;;;8158502;28;20051;-73
2023/05/13 14:06:35;;;;;;;2.90;1.70;;;;;;;;;;8164538;28;20031;-73
2023/05/13 14:10:35;;;;;;;2.50;1.63;;;;;;;;;;8156960;28;20030;-73
2023/05/13 14:14:35;;;;;;;3.00;1.50;;;;;;;;;;8159369;28;20117;-72
2023/05/13 14:18:35;;;;;;;3.95;1.70;;;;;;;;;;8160666;28;20050;-72
2023/05/13 14:22:36;;;;;;;2.13;1.40;;;;;;;;;;8158286;29;20119;-72
2023/05/13 14:26:36;;;;;;;1.57;1.27;;;;;;;;;;8156188;28;20654;-73
2023/05/13 14:30:36;;;;;;;3.53;1.38;;;;;;;;;;8154172;28;20279;-72
2023/05/13 14:34:36;;;;;;;1.80;1.17;;;;;;;;;;8162664;28;20027;-72
2023/05/13 14:38:38;;;;;;;1.30;1.20;;;;;;;;;;8155189;28;20206;-73
2023/05/13 14:42:39;;;;;;;1.60;1.40;;;;;;;;;;8152589;28;20110;-73
2023/05/13 14:46:40;;;;;;;2.00;1.40;;;;;;;;;;8155519;28;20106;-73
2023/05/13 14:50:44;;;;;;;1.55;1.42;;;;;;;;;;8158997;28;20039;-73
2023/05/13 14:54:44;;;;;;;1.77;1.60;;;;;;;;;;8153405;28;20054;-73
2023/05/13 14:58:44;;;;;;;1.90;1.67;;;;;;;;;;8161985;28;20023;-73
2023/05/13 15:02:44;;;;;;;2.58;1.70;;;;;;;;;;8155954;28;20162;-73
2023/05/13 15:06:44;;;;;;;1.60;1.50;;;;;;;;;;8154676;28;20042;-73
2023/05/13 15:10:45;;;;;;;3.15;2.13;;;;;;;;;;8154803;28;20054;-73
2023/05/13 15:14:52;;;;;;;5.15;3.95;;;;;;;;;;8154434;28;20039;-72
2023/05/13 15:18:52;;;;;;;3.78;2.50;;;;;;;;;;8154211;28;20027;-73
2023/05/13 15:22:53;;;;;;;2.38;1.98;;;;;;;;;;8165765;28;20019;-73
2023/05/13 15:26:53;;;;;;;2.38;1.73;;;;;;;;;;8164189;28;20035;-72
2023/05/13 15:30:53;;;;;;;3.17;1.60;;;;;;;;;;8165504;28;20113;-73
2023/05/13 15:34:53;;;;;;;1.77;1.67;;;;;;;;;;8153211;28;20453;-73
2023/05/13 15:38:53;;;;;;;3.55;2.08;;;;;;;;;;8151382;28;20029;-73
2023/05/13 15:42:54;;;;;;;2.25;1.77;;;;;;;;;;8155209;28;20031;-73
2023/05/13 15:46:54;;;;;;;2.35;2.05;;;;;;;;;;8154013;28;20039;-73
2023/05/13 15:50:54;;;;;;;6.90;4.80;;;;;;;;;;8153675;28;20035;-72
2023/05/13 15:54:54;;;;;;;5.15;4.35;;;;;;;;;;8155788;28;20031;-73
2023/05/13 15:58:55;;;;;;;3.53;2.17;;;;;;;;;;8155102;28;20034;-74
2023/05/13 16:02:55;;;;;;;3.85;1.90;;;;;;;;;;8159509;28;21210;-73
2023/05/13 16:06:55;;;;;;;4.22;2.10;;;;;;;;;;8157370;28;20782;-72
2023/05/13 16:10:55;;;;;;;2.55;1.80;;;;;;;;;;8158564;28;20051;-73
2023/05/13 16:14:56;;;;;;;3.23;1.70;;;;;;;;;;8156853;28;20027;-72
2023/05/13 16:18:57;;;;;;;1.92;1.60;;;;;;;;;;8155071;28;20031;-72
2023/05/13 16:22:57;;;;;;;2.70;1.73;;;;;;;;;;8150702;28;20023;-73
2023/05/13 16:26:57;;;;;;;2.78;1.70;;;;;;;;;;8152547;28;20240;-73
2023/05/13 16:30:57;;;;;;;4.80;2.00;;;;;;;;;;8145271;28;20039;-73
2023/05/13 16:35:00;;;;;;;4.33;2.37;;;;;;;;;;8161280;28;20860;-73
2023/05/13 16:39:00;;;;;;;2.17;1.63;;;;;;;;;;8152566;28;20044;-72
2023/05/13 16:43:00;;;;;;;4.30;1.97;;;;;;;;;;8150388;28;20556;-73
2023/05/13 16:47:01;;;;;;;3.92;1.90;;;;;;;;;;8148086;28;20051;-73
2023/05/13 16:51:02;;;;;;;4.10;1.83;;;;;;;;;;8153785;28;20745;-74
2023/05/13 16:55:02;;;;;;;3.05;1.60;;;;;;;;;;8163352;28;20800;-73
2023/05/13 16:59:02;;;;;;;2.00;1.77;;;;;;;;;;8160944;28;20027;-74
2023/05/13 17:03:03;;;;;;;2.30;1.80;;;;;;;;;;8154556;28;20275;-73
2023/05/13 17:07:03;;;;;;;1.90;1.70;;;;;;;;;;8154937;28;20190;-73
2023/05/13 17:11:03;;;;;;;2.92;1.85;;;;;;;;;;8154608;28;20034;-73
2023/05/13 17:15:04;;;;;;;3.60;2.42;;;;;;;;;;8154521;28;20034;-74
2023/05/13 17:19:04;;;;;;;3.65;2.10;;;;;;;;;;8153943;28;20031;-73
2023/05/13 17:23:04;;;;;;;2.28;1.80;;;;;;;;;;8153368;28;20031;-73
2023/05/13 17:27:05;;;;;;;4.05;1.80;;;;;;;;;;8153756;28;20027;-74
2023/05/13 17:31:06;;;;;;;1.70;1.60;;;;;;;;;;8159049;28;20117;-74
2023/05/13 17:35:06;;;;;;;3.08;1.98;;;;;;;;;;8187095;28;20432;-73
2023/05/13 17:39:06;;;;;;;2.40;1.98;;;;;;;;;;8186250;28;20182;-74
2023/05/13 17:43:06;;;;;;;1.90;1.80;;;;;;;;;;8186941;28;20030;-74
2023/05/13 17:47:06;;;;;;;2.10;1.75;;;;;;;;;;8166750;28;20071;-73
2023/05/13 17:51:07;;;;;;;3.33;2.00;;;;;;;;;;8152395;28;20034;-75
2023/05/13 17:55:07;;;;;;;3.38;1.90;;;;;;;;;;8155080;28;20933;-73
2023/05/13 17:59:07;;;;;;;2.70;1.80;;;;;;;;;;8165006;28;20027;-73
2023/05/13 18:03:08;;;;;;;2.50;1.90;;;;;;;;;;8157204;28;20098;-73
2023/05/13 18:07:08;;;;;;;2.75;2.15;;;;;;;;;;8169908;28;20101;-73
2023/05/13 18:11:08;;;;;;;2.80;2.00;;;;;;;;;;8152586;28;20042;-73
2023/05/13 18:15:08;;;;;;;2.77;1.97;;;;;;;;;;8152559;28;20033;-73
2023/05/13 18:19:09;;;;;;;2.50;2.10;;;;;;;;;;8154410;28;20411;-73
2023/05/13 18:23:09;;;;;;;2.40;2.20;;;;;;;;;;8159300;28;20058;-74
2023/05/13 18:27:09;;;;;;;3.42;1.92;;;;;;;;;;8157869;28;20058;-73
2023/05/13 18:31:09;;;;;;;1.90;1.67;;;;;;;;;;8165359;28;20039;-73
2023/05/13 18:35:10;;;;;;;2.10;1.90;;;;;;;;;;8197915;28;20118;-73
2023/05/13 18:39:10;;;;;;;2.10;1.90;;;;;;;;;;8192745;28;20344;-74
2023/05/13 18:43:11;;;;;;;2.35;2.00;;;;;;;;;;8192754;28;20033;-73
2023/05/13 18:47:11;;;;;;;2.40;1.80;;;;;;;;;;8184067;28;20102;-73
2023/05/13 18:51:11;;;;;;;2.08;1.88;;;;;;;;;;8158016;28;20027;-73
2023/05/13 18:55:11;;;;;;;2.58;1.80;;;;;;;;;;8159278;28;20035;-73
2023/05/13 18:59:12;;;;;;;5.35;3.88;;;;;;;;;;8168862;29;20034;-72
2023/05/13 19:03:12;;;;;;;7.63;4.80;;;;;;;;;;8159121;28;20258;-73
2023/05/13 19:07:12;;;;;;;3.08;2.75;;;;;;;;;;8167336;28;20211;-72
2023/05/13 19:11:12;;;;;;;2.28;2.08;;;;;;;;;;8164671;28;20031;-72
2023/05/13 19:15:12;;;;;;;2.13;1.93;;;;;;;;;;8157224;28;20702;-73
2023/05/13 19:19:13;;;;;;;3.47;2.10;;;;;;;;;;8158028;28;20588;-73
2023/05/13 19:23:13;;;;;;;2.13;1.90;;;;;;;;;;8159123;28;20069;-73
2023/05/13 19:27:13;;;;;;;2.33;1.90;;;;;;;;;;8157072;28;20101;-73
2023/05/13 19:31:13;;;;;;;6.38;1.85;;;;;;;;;;8153255;28;20389;-73
2023/05/13 19:35:13;;;;;;;4.22;2.10;;;;;;;;;;8161135;29;20705;-73
2023/05/13 19:39:13;;;;;;;3.03;2.17;;;;;;;;;;8153341;28;20023;-73
2023/05/13 19:43:14;;;;;;;3.10;1.90;;;;;;;;;;8154780;29;20042;-73
2023/05/13 19:47:14;;;;;;;2.40;2.08;;;;;;;;;;8155962;28;20028;-73
2023/05/13 19:51:14;;;;;;;2.13;1.92;;;;;;;;;;8161437;28;20126;-73
2023/05/13 19:55:15;;;;;;;2.20;2.00;;;;;;;;;;8150869;28;20031;-71
2023/05/13 19:59:15;;;;;;;2.08;1.90;;;;;;;;;;8156643;28;20058;-72
2023/05/13 20:03:16;;;;;;;2.63;1.90;;;;;;;;;;8147527;28;20114;-72
2023/05/13 20:07:16;;;;;;;2.40;2.10;;;;;;;;;;8147969;28;20031;-72
2023/05/13 20:11:16;;;;;;;2.25;1.90;;;;;;;;;;8158905;28;20090;-71
2023/05/13 20:15:16;;;;;;;3.42;1.80;;;;;;;;;;8160322;28;20027;-71
2023/05/13 20:19:17;;;;;;;2.58;2.20;;;;;;;;;;8184809;28;20141;-71
2023/05/13 20:23:17;;;;;;;2.40;2.20;;;;;;;;;;8180191;28;20070;-71
2023/05/13 20:27:17;;;;;;;3.92;2.47;;;;;;;;;;8184132;28;20031;-72
2023/05/13 20:31:17;;;;;;;3.72;3.05;;;;;;;;;;8168138;28;20035;-71
2023/05/13 20:35:18;;;;;;;6.15;3.30;;;;;;;;;;8155428;29;20034;-71
2023/05/13 20:39:18;;;;;;;4.17;3.20;;;;;;;;;;8157948;28;20054;-72
2023/05/13 20:43:18;;;;;;;4.57;2.57;;;;;;;;;;8148808;28;20297;-71
2023/05/13 20:47:19;;;;;;;4.18;2.20;;;;;;;;;;8148622;28;20333;-71
2023/05/13 20:51:20;;;;;;;3.03;2.42;;;;;;;;;;8148998;28;20118;-71
2023/05/13 20:55:20;;;;;;;3.90;2.13;;;;;;;;;;8159024;28;20035;-72
2023/05/13 20:59:21;;;;;;;2.72;2.33;;;;;;;;;;8161963;28;20028;-72
2023/05/13 21:03:21;;;;;;;2.42;2.08;;;;;;;;;;8151644;28;20594;-72
2023/05/13 21:07:21;;;;;;;3.70;2.10;;;;;;;;;;8155786;28;20035;-71
2023/05/13 21:11:22;;;;;;;4.85;1.80;;;;;;;;;;8161740;29;20038;-71
2023/05/13 21:15:22;;;;;;;2.42;2.10;;;;;;;;;;8153106;28;20091;-71
2023/05/13 21:19:23;;;;;;;4.00;2.10;;;;;;;;;;8153666;28;20448;-72
2023/05/13 21:23:23;;;;;;;2.70;2.10;;;;;;;;;;8147379;28;20019;-72
2023/05/13 21:27:23;;;;;;;5.43;1.97;;;;;;;;;;8155738;28;20038;-72
2023/05/13 21:31:23;;;;;;;2.20;2.00;;;;;;;;;;8146513;28;20295;-72
2023/05/13 21:35:24;;;;;;;3.35;2.10;;;;;;;;;;8158523;28;20052;-73
2023/05/13 21:39:24;;;;;;;2.15;1.95;;;;;;;;;;8151954;28;20110;-72
2023/05/13 21:43:24;;;;;;;4.63;2.20;;;;;;;;;;8154013;28;20035;-72
2023/05/13 21:47:24;;;;;;;1.80;1.70;;;;;;;;;;8174010;28;20043;-72
2023/05/13 21:51:24;;;;;;;2.53;2.05;;;;;;;;;;8185086;28;20023;-72
2023/05/13 21:55:25;;;;;;;3.00;2.10;;;;;;;;;;8193636;28;20031;-71
2023/05/13 21:59:25;;;;;;;5.07;1.90;;;;;;;;;;8198747;28;20054;-72
2023/05/13 22:03:25;;;;;;;4.32;2.20;;;;;;;;;;8189537;28;20073;-72
2023/05/13 22:07:25;;;;;;;4.95;2.47;;;;;;;;;;8197356;28;20393;-72
2023/05/13 22:11:26;;;;;;;2.78;2.30;;;;;;;;;;8191922;28;20316;-71
2023/05/13 22:15:26;;;;;;;2.05;1.90;;;;;;;;;;8198516;28;20046;-72
2023/05/13 22:19:27;;;;;;;2.90;2.17;;;;;;;;;;8191184;28;20043;-71
2023/05/13 22:23:28;;;;;;;3.22;2.25;;;;;;;;;;8200019;28;20033;-72
2023/05/13 22:27:28;;;;;;;2.30;2.10;;;;;;;;;;8191224;28;20022;-71
2023/05/13 22:31:28;;;;;;;5.20;2.10;;;;;;;;;;8179165;28;20031;-71
2023/05/13 22:35:30;;;;;;;3.33;2.05;;;;;;;;;;8158541;28;20353;-71
2023/05/13 22:39:30;;;;;;;3.53;2.17;;;;;;;;;;8162813;29;20023;-71
2023/05/13 22:43:31;;;;;;;2.92;2.10;;;;;;;;;;8165544;28;20073;-72
2023/05/13 22:47:31;;;;;;;2.25;1.98;;;;;;;;;;8176172;28;21043;-71
2023/05/13 22:51:32;;;;;;;3.22;1.90;;;;;;;;;;8168948;28;20888;-71
2023/05/13 22:55:32;;;;;;;2.47;2.03;;;;;;;;;;8159763;28;20026;-72
2023/05/13 22:59:34;;;;;;;2.90;1.90;;;;;;;;;;8155918;29;20031;-71
2023/05/13 23:03:34;;;;;;;3.15;2.10;;;;;;;;;;8158512;28;20655;-72
2023/05/13 23:07:34;;;;;;;2.40;2.20;;;;;;;;;;8158174;28;20041;-71
2023/05/13 23:11:35;;;;;;;3.37;2.23;;;;;;;;;;8158312;28;20463;-72
2023/05/13 23:15:35;;;;;;;3.10;2.22;;;;;;;;;;8166188;28;20326;-71
2023/05/13 23:19:36;;;;;;;4.57;2.10;;;;;;;;;;8163327;28;20031;-72
2023/05/13 23:23:37;;;;;;;2.83;2.05;;;;;;;;;;8157537;28;20386;-72
2023/05/13 23:27:37;;;;;;;2.45;2.25;;;;;;;;;;8158031;28;20122;-71
2023/05/13 23:31:39;;;;;;;2.30;2.10;;;;;;;;;;8155496;28;20066;-71
2023/05/13 23:35:39;;;;;;;3.45;2.10;;;;;;;;;;8156781;28;20031;-71
2023/05/13 23:39:39;;;;;;;3.45;2.30;;;;;;;;;;8156920;28;20019;-71
2023/05/13 23:43:39;;;;;;;2.60;2.38;;;;;;;;;;8156584;28;20027;-71
2023/05/13 23:47:39;;;;;;;3.17;2.20;;;;;;;;;;8160225;28;20039;-71
2023/05/13 23:51:40;;;;;;;6.65;2.10;;;;;;;;;;8159093;28;20023;-71
2023/05/13 23:55:40;;;;;;;4.72;2.40;;;;;;;;;;8156635;28;20122;-71
2023/05/13 23:59:40;;;;;;;8.15;2.30;;;;;;;;;;8156693;28;20030;-71
